sensor_id;sensor_type;location;lat;lon;timestamp;P1;durP1;ratioP1;P2;durP2;ratioP2
21663;SDS011;10993;52.510;13.456;2023-08-17T00:03:12;7.15;;;1.90;;
21663;SDS011;10993;52.510;13.456;2023-08-17T00:08:12;7.13;;;2.50;;
21663;SDS011;10993;52.510;13.456;2023-08-17T00:13:12;5.00;;;1.90;;
21663;SDS011;10993;52.510;13.456;2023-08-17T00:18:15;3.78;;;2.25;;
21663;SDS011;10993;52.510;13.456;2023-08-17T00:23:17;4.93;;;2.33;;
21663;SDS011;10993;52.510;13.456;2023-08-17T00:28:17;5.85;;;2.33;;
21663;SDS011;10993;52.510;13.456;2023-08-17T00:33:19;5.43;;;2.50;;
21663;SDS011;10993;52.510;13.456;2023-08-17T00:38:19;3.90;;;2.00;;
21663;SDS011;10993;52.510;13.456;2023-08-17T00:43:19;6.23;;;2.30;;
21663;SDS011;10993;52.510;13.456;2023-08-17T00:48:21;6.53;;;2.50;;
21663;SDS011;10993;52.510;13.456;2023-08-17T00:53:22;6.43;;;2.75;;
21663;SDS011;10993;52.510;13.456;2023-08-17T00:58:25;5.65;;;2.47;;
21663;SDS011;10993;52.510;13.456;2023-08-17T01:03:28;5.70;;;2.60;;
21663;SDS011;10993;52.510;13.456;2023-08-17T01:08:32;4.82;;;2.53;;
21663;SDS011;10993;52.510;13.456;2023-08-17T01:13:34;4.00;;;1.90;;
21663;SDS011;10993;52.510;13.456;2023-08-17T01:18:40;7.03;;;2.08;;
21663;SDS011;10993;52.510;13.456;2023-08-17T01:23:45;6.15;;;2.47;;
21663;SDS011;10993;52.510;13.456;2023-08-17T01:28:45;7.00;;;2.35;;
21663;SDS011;10993;52.510;13.456;2023-08-17T01:33:48;3.88;;;2.10;;
21663;SDS011;10993;52.510;13.456;2023-08-17T01:38:53;6.35;;;2.30;;
21663;SDS011;10993;52.510;13.456;2023-08-17T01:43:56;4.32;;;2.00;;
21663;SDS011;10993;52.510;13.456;2023-08-17T01:48:57;5.80;;;2.60;;
21663;SDS011;10993;52.510;13.456;2023-08-17T01:53:59;6.13;;;2.40;;
21663;SDS011;10993;52.510;13.456;2023-08-17T01:58:59;7.13;;;2.45;;
21663;SDS011;10993;52.510;13.456;2023-08-17T02:04:00;6.80;;;2.60;;
21663;SDS011;10993;52.510;13.456;2023-08-17T02:09:03;6.07;;;2.35;;
21663;SDS011;10993;52.510;13.456;2023-08-17T02:14:03;6.82;;;2.53;;
21663;SDS011;10993;52.510;13.456;2023-08-17T02:19:04;6.40;;;2.17;;
21663;SDS011;10993;52.510;13.456;2023-08-17T02:24:06;4.78;;;2.15;;
21663;SDS011;10993;52.510;13.456;2023-08-17T02:29:07;4.93;;;2.17;;
21663;SDS011;10993;52.510;13.456;2023-08-17T02:34:07;5.50;;;2.33;;
21663;SDS011;10993;52.510;13.456;2023-08-17T02:39:09;6.05;;;2.50;;
21663;SDS011;10993;52.510;13.456;2023-08-17T02:44:09;6.45;;;2.15;;
21663;SDS011;10993;52.510;13.456;2023-08-17T02:49:10;6.55;;;2.20;;
21663;SDS011;10993;52.510;13.456;2023-08-17T02:54:11;5.03;;;2.07;;
21663;SDS011;10993;52.510;13.456;2023-08-17T02:59:12;7.38;;;2.83;;
21663;SDS011;10993;52.510;13.456;2023-08-17T03:04:12;7.40;;;2.70;;
21663;SDS011;10993;52.510;13.456;2023-08-17T03:09:14;7.87;;;2.30;;
21663;SDS011;10993;52.510;13.456;2023-08-17T03:14:14;3.22;;;1.90;;
21663;SDS011;10993;52.510;13.456;2023-08-17T03:19:14;3.58;;;1.88;;
21663;SDS011;10993;52.510;13.456;2023-08-17T03:24:16;6.07;;;2.40;;
21663;SDS011;10993;52.510;13.456;2023-08-17T03:29:16;8.48;;;2.42;;
21663;SDS011;10993;52.510;13.456;2023-08-17T03:34:17;4.03;;;1.90;;
21663;SDS011;10993;52.510;13.456;2023-08-17T03:39:18;8.40;;;2.37;;
21663;SDS011;10993;52.510;13.456;2023-08-17T03:44:19;4.18;;;1.70;;
21663;SDS011;10993;52.510;13.456;2023-08-17T03:49:19;6.38;;;1.90;;
21663;SDS011;10993;52.510;13.456;2023-08-17T03:54:21;3.00;;;1.77;;
21663;SDS011;10993;52.510;13.456;2023-08-17T03:59:21;5.30;;;1.58;;
21663;SDS011;10993;52.510;13.456;2023-08-17T04:04:21;4.97;;;1.53;;
21663;SDS011;10993;52.510;13.456;2023-08-17T04:09:23;6.13;;;1.90;;
21663;SDS011;10993;52.510;13.456;2023-08-17T04:14:23;5.75;;;1.85;;
21663;SDS011;10993;52.510;13.456;2023-08-17T04:19:24;3.13;;;1.70;;
21663;SDS011;10993;52.510;13.456;2023-08-17T04:24:25;3.23;;;1.63;;
21663;SDS011;10993;52.510;13.456;2023-08-17T04:29:26;4.38;;;1.70;;
21663;SDS011;10993;52.510;13.456;2023-08-17T04:34:26;5.00;;;1.53;;
21663;SDS011;10993;52.510;13.456;2023-08-17T04:39:28;4.23;;;1.50;;
21663;SDS011;10993;52.510;13.456;2023-08-17T04:44:28;3.33;;;1.45;;
21663;SDS011;10993;52.510;13.456;2023-08-17T04:49:29;3.40;;;1.50;;
21663;SDS011;10993;52.510;13.456;2023-08-17T04:54:30;3.42;;;1.48;;
21663;SDS011;10993;52.510;13.456;2023-08-17T04:59:31;4.00;;;1.55;;
21663;SDS011;10993;52.510;13.456;2023-08-17T05:04:31;3.20;;;1.13;;
21663;SDS011;10993;52.510;13.456;2023-08-17T05:09:33;3.20;;;1.45;;
21663;SDS011;10993;52.510;13.456;2023-08-17T05:14:33;2.65;;;1.40;;
21663;SDS011;10993;52.510;13.456;2023-08-17T05:19:33;2.93;;;1.33;;
21663;SDS011;10993;52.510;13.456;2023-08-17T05:24:35;3.90;;;1.50;;
21663;SDS011;10993;52.510;13.456;2023-08-17T05:29:35;1.90;;;0.98;;
21663;SDS011;10993;52.510;13.456;2023-08-17T05:34:36;3.07;;;1.27;;
21663;SDS011;10993;52.510;13.456;2023-08-17T05:39:37;4.05;;;1.30;;
21663;SDS011;10993;52.510;13.456;2023-08-17T05:44:39;4.80;;;1.10;;
21663;SDS011;10993;52.510;13.456;2023-08-17T05:49:39;2.37;;;1.00;;
21663;SDS011;10993;52.510;13.456;2023-08-17T05:54:41;3.43;;;1.10;;
21663;SDS011;10993;52.510;13.456;2023-08-17T05:59:42;3.50;;;1.30;;
21663;SDS011;10993;52.510;13.456;2023-08-17T06:04:42;4.57;;;1.50;;
21663;SDS011;10993;52.510;13.456;2023-08-17T06:09:44;4.53;;;1.67;;
21663;SDS011;10993;52.510;13.456;2023-08-17T06:14:44;3.75;;;1.35;;
21663;SDS011;10993;52.510;13.456;2023-08-17T06:19:45;3.67;;;1.42;;
21663;SDS011;10993;52.510;13.456;2023-08-17T06:24:47;6.38;;;1.98;;
21663;SDS011;10993;52.510;13.456;2023-08-17T06:29:47;4.72;;;2.08;;
21663;SDS011;10993;52.510;13.456;2023-08-17T06:34:48;3.83;;;1.50;;
21663;SDS011;10993;52.510;13.456;2023-08-17T06:39:49;5.10;;;1.58;;
21663;SDS011;10993;52.510;13.456;2023-08-17T06:44:50;4.55;;;1.80;;
21663;SDS011;10993;52.510;13.456;2023-08-17T06:49:50;2.43;;;1.50;;
21663;SDS011;10993;52.510;13.456;2023-08-17T06:54:52;2.83;;;1.40;;
21663;SDS011;10993;52.510;13.456;2023-08-17T06:59:52;6.40;;;2.05;;
21663;SDS011;10993;52.510;13.456;2023-08-17T07:04:52;3.90;;;1.63;;
21663;SDS011;10993;52.510;13.456;2023-08-17T07:09:54;4.73;;;1.60;;
21663;SDS011;10993;52.510;13.456;2023-08-17T07:14:54;6.22;;;1.75;;
21663;SDS011;10993;52.510;13.456;2023-08-17T07:19:54;5.67;;;1.50;;
21663;SDS011;10993;52.510;13.456;2023-08-17T07:24:56;3.93;;;1.80;;
21663;SDS011;10993;52.510;13.456;2023-08-17T07:29:56;3.53;;;1.65;;
21663;SDS011;10993;52.510;13.456;2023-08-17T07:34:57;3.03;;;1.57;;
21663;SDS011;10993;52.510;13.456;2023-08-17T07:39:58;3.77;;;1.90;;
21663;SDS011;10993;52.510;13.456;2023-08-17T07:44:59;4.97;;;1.95;;
21663;SDS011;10993;52.510;13.456;2023-08-17T07:50:01;3.63;;;1.83;;
21663;SDS011;10993;52.510;13.456;2023-08-17T07:55:03;9.13;;;2.38;;
21663;SDS011;10993;52.510;13.456;2023-08-17T08:00:05;4.97;;;1.67;;
21663;SDS011;10993;52.510;13.456;2023-08-17T08:05:06;6.70;;;2.10;;
21663;SDS011;10993;52.510;13.456;2023-08-17T08:10:08;2.67;;;1.63;;
21663;SDS011;10993;52.510;13.456;2023-08-17T08:15:09;5.22;;;2.08;;
21663;SDS011;10993;52.510;13.456;2023-08-17T08:20:10;5.22;;;1.88;;
21663;SDS011;10993;52.510;13.456;2023-08-17T08:25:12;4.57;;;1.48;;
21663;SDS011;10993;52.510;13.456;2023-08-17T08:30:12;2.85;;;1.38;;
21663;SDS011;10993;52.510;13.456;2023-08-17T08:35:13;4.20;;;2.10;;
21663;SDS011;10993;52.510;13.456;2023-08-17T08:40:14;5.00;;;2.27;;
21663;SDS011;10993;52.510;13.456;2023-08-17T08:45:17;3.58;;;1.60;;
21663;SDS011;10993;52.510;13.456;2023-08-17T08:50:18;5.22;;;2.10;;
21663;SDS011;10993;52.510;13.456;2023-08-17T08:55:23;3.53;;;1.92;;
21663;SDS011;10993;52.510;13.456;2023-08-17T09:00:26;5.80;;;2.42;;
21663;SDS011;10993;52.510;13.456;2023-08-17T09:05:27;3.65;;;1.95;;
21663;SDS011;10993;52.510;13.456;2023-08-17T09:10:29;5.32;;;2.28;;
21663;SDS011;10993;52.510;13.456;2023-08-17T09:15:29;4.03;;;1.88;;
21663;SDS011;10993;52.510;13.456;2023-08-17T09:20:36;5.70;;;2.30;;
21663;SDS011;10993;52.510;13.456;2023-08-17T09:25:40;4.25;;;2.35;;
21663;SDS011;10993;52.510;13.456;2023-08-17T09:30:54;4.80;;;2.20;;
21663;SDS011;10993;52.510;13.456;2023-08-17T09:35:55;6.47;;;2.10;;
21663;SDS011;10993;52.510;13.456;2023-08-17T09:40:58;4.22;;;1.92;;
21663;SDS011;10993;52.510;13.456;2023-08-17T09:45:59;7.80;;;2.05;;
21663;SDS011;10993;52.510;13.456;2023-08-17T09:51:02;3.78;;;1.80;;
21663;SDS011;10993;52.510;13.456;2023-08-17T09:56:06;3.40;;;1.90;;
21663;SDS011;10993;52.510;13.456;2023-08-17T10:01:13;5.53;;;1.92;;
21663;SDS011;10993;52.510;13.456;2023-08-17T10:06:14;4.30;;;1.95;;
21663;SDS011;10993;52.510;13.456;2023-08-17T10:11:22;4.13;;;2.20;;
21663;SDS011;10993;52.510;13.456;2023-08-17T10:16:23;5.63;;;2.20;;
21663;SDS011;10993;52.510;13.456;2023-08-17T10:21:29;5.57;;;2.25;;
21663;SDS011;10993;52.510;13.456;2023-08-17T10:26:37;5.38;;;2.47;;
21663;SDS011;10993;52.510;13.456;2023-08-17T10:31:39;9.77;;;3.05;;
21663;SDS011;10993;52.510;13.456;2023-08-17T10:36:40;5.22;;;2.70;;
21663;SDS011;10993;52.510;13.456;2023-08-17T10:41:46;5.32;;;2.50;;
21663;SDS011;10993;52.510;13.456;2023-08-17T10:46:47;3.97;;;2.28;;
21663;SDS011;10993;52.510;13.456;2023-08-17T10:51:59;5.57;;;2.40;;
21663;SDS011;10993;52.510;13.456;2023-08-17T11:02:35;2.65;;;2.03;;
21663;SDS011;10993;52.510;13.456;2023-08-17T11:07:40;5.07;;;2.40;;
21663;SDS011;10993;52.510;13.456;2023-08-17T11:12:42;3.95;;;2.28;;
21663;SDS011;10993;52.510;13.456;2023-08-17T11:17:43;5.65;;;2.88;;
21663;SDS011;10993;52.510;13.456;2023-08-17T11:22:43;3.28;;;2.25;;
21663;SDS011;10993;52.510;13.456;2023-08-17T11:27:45;3.75;;;2.17;;
21663;SDS011;10993;52.510;13.456;2023-08-17T11:32:46;4.18;;;2.30;;
21663;SDS011;10993;52.510;13.456;2023-08-17T11:37:47;5.80;;;3.10;;
21663;SDS011;10993;52.510;13.456;2023-08-17T11:42:52;6.38;;;2.72;;
21663;SDS011;10993;52.510;13.456;2023-08-17T11:47:53;5.55;;;2.80;;
21663;SDS011;10993;52.510;13.456;2023-08-17T11:52:53;4.87;;;2.60;;
21663;SDS011;10993;52.510;13.456;2023-08-17T11:57:55;4.80;;;3.05;;
21663;SDS011;10993;52.510;13.456;2023-08-17T12:02:55;4.03;;;2.90;;
21663;SDS011;10993;52.510;13.456;2023-08-17T12:07:56;5.73;;;3.40;;
21663;SDS011;10993;52.510;13.456;2023-08-17T12:12:58;4.10;;;2.90;;
21663;SDS011;10993;52.510;13.456;2023-08-17T12:18:03;4.53;;;3.15;;
21663;SDS011;10993;52.510;13.456;2023-08-17T12:23:04;5.53;;;3.10;;
21663;SDS011;10993;52.510;13.456;2023-08-17T12:28:06;6.35;;;3.08;;
21663;SDS011;10993;52.510;13.456;2023-08-17T12:33:06;4.15;;;2.92;;
21663;SDS011;10993;52.510;13.456;2023-08-17T12:38:06;6.00;;;2.90;;
21663;SDS011;10993;52.510;13.456;2023-08-17T12:43:08;5.15;;;3.20;;
21663;SDS011;10993;52.510;13.456;2023-08-17T12:48:08;5.85;;;3.05;;
21663;SDS011;10993;52.510;13.456;2023-08-17T12:53:09;5.27;;;2.70;;
21663;SDS011;10993;52.510;13.456;2023-08-17T12:58:10;3.78;;;2.72;;
21663;SDS011;10993;52.510;13.456;2023-08-17T13:03:11;4.18;;;2.75;;
21663;SDS011;10993;52.510;13.456;2023-08-17T13:08:11;4.47;;;3.10;;
21663;SDS011;10993;52.510;13.456;2023-08-17T13:13:13;4.40;;;3.13;;
21663;SDS011;10993;52.510;13.456;2023-08-17T13:18:13;5.85;;;3.53;;
21663;SDS011;10993;52.510;13.456;2023-08-17T13:23:13;6.93;;;3.50;;
21663;SDS011;10993;52.510;13.456;2023-08-17T13:28:15;4.60;;;3.40;;
21663;SDS011;10993;52.510;13.456;2023-08-17T13:33:16;6.07;;;2.90;;
21663;SDS011;10993;52.510;13.456;2023-08-17T13:38:16;6.00;;;3.28;;
21663;SDS011;10993;52.510;13.456;2023-08-17T13:43:18;5.00;;;2.85;;
21663;SDS011;10993;52.510;13.456;2023-08-17T13:48:18;4.97;;;3.35;;
21663;SDS011;10993;52.510;13.456;2023-08-17T13:53:19;4.97;;;3.30;;
21663;SDS011;10993;52.510;13.456;2023-08-17T13:58:20;4.40;;;3.17;;
21663;SDS011;10993;52.510;13.456;2023-08-17T14:03:21;4.05;;;2.95;;
21663;SDS011;10993;52.510;13.456;2023-08-17T14:08:22;4.47;;;3.03;;
21663;SDS011;10993;52.510;13.456;2023-08-17T14:13:24;4.40;;;3.10;;
21663;SDS011;10993;52.510;13.456;2023-08-17T14:18:24;4.20;;;2.92;;
21663;SDS011;10993;52.510;13.456;2023-08-17T14:23:24;6.75;;;3.05;;
21663;SDS011;10993;52.510;13.456;2023-08-17T14:28:26;8.03;;;3.27;;
21663;SDS011;10993;52.510;13.456;2023-08-17T14:33:26;5.88;;;2.90;;
21663;SDS011;10993;52.510;13.456;2023-08-17T14:38:26;4.10;;;2.70;;
21663;SDS011;10993;52.510;13.456;2023-08-17T14:43:28;3.90;;;2.77;;
21663;SDS011;10993;52.510;13.456;2023-08-17T14:48:28;4.40;;;2.90;;
21663;SDS011;10993;52.510;13.456;2023-08-17T14:53:29;4.85;;;3.08;;
21663;SDS011;10993;52.510;13.456;2023-08-17T14:58:31;5.85;;;3.00;;
21663;SDS011;10993;52.510;13.456;2023-08-17T15:03:31;5.20;;;3.55;;
21663;SDS011;10993;52.510;13.456;2023-08-17T15:08:31;4.53;;;3.07;;
21663;SDS011;10993;52.510;13.456;2023-08-17T15:13:33;5.05;;;3.50;;
21663;SDS011;10993;52.510;13.456;2023-08-17T15:18:34;4.82;;;3.13;;
21663;SDS011;10993;52.510;13.456;2023-08-17T15:23:34;4.88;;;3.17;;
21663;SDS011;10993;52.510;13.456;2023-08-17T15:28:36;8.73;;;2.93;;
21663;SDS011;10993;52.510;13.456;2023-08-17T15:33:36;4.70;;;2.63;;
21663;SDS011;10993;52.510;13.456;2023-08-17T15:38:36;3.73;;;2.40;;
21663;SDS011;10993;52.510;13.456;2023-08-17T15:43:38;4.75;;;2.90;;
21663;SDS011;10993;52.510;13.456;2023-08-17T15:48:39;4.72;;;3.10;;
21663;SDS011;10993;52.510;13.456;2023-08-17T15:53:39;5.93;;;3.03;;
21663;SDS011;10993;52.510;13.456;2023-08-17T15:58:44;3.47;;;2.72;;
21663;SDS011;10993;52.510;13.456;2023-08-17T16:03:44;4.97;;;3.03;;
21663;SDS011;10993;52.510;13.456;2023-08-17T16:08:45;4.43;;;2.92;;
21663;SDS011;10993;52.510;13.456;2023-08-17T16:13:47;4.82;;;2.67;;
21663;SDS011;10993;52.510;13.456;2023-08-17T16:18:47;5.60;;;2.80;;
21663;SDS011;10993;52.510;13.456;2023-08-17T16:23:47;5.03;;;3.10;;
21663;SDS011;10993;52.510;13.456;2023-08-17T16:28:49;4.60;;;2.90;;
21663;SDS011;10993;52.510;13.456;2023-08-17T16:33:49;8.45;;;3.20;;
21663;SDS011;10993;52.510;13.456;2023-08-17T16:38:50;5.13;;;2.90;;
21663;SDS011;10993;52.510;13.456;2023-08-17T16:43:51;4.23;;;3.00;;
21663;SDS011;10993;52.510;13.456;2023-08-17T16:48:52;4.85;;;3.00;;
21663;SDS011;10993;52.510;13.456;2023-08-17T16:53:52;5.33;;;3.27;;
21663;SDS011;10993;52.510;13.456;2023-08-17T16:58:55;7.40;;;3.75;;
21663;SDS011;10993;52.510;13.456;2023-08-17T17:03:55;6.68;;;3.55;;
21663;SDS011;10993;52.510;13.456;2023-08-17T17:08:55;4.80;;;3.30;;
21663;SDS011;10993;52.510;13.456;2023-08-17T17:13:57;4.80;;;3.10;;
21663;SDS011;10993;52.510;13.456;2023-08-17T17:18:58;5.10;;;3.38;;
21663;SDS011;10993;52.510;13.456;2023-08-17T17:23:59;8.43;;;3.30;;
21663;SDS011;10993;52.510;13.456;2023-08-17T17:29:00;7.73;;;3.60;;
21663;SDS011;10993;52.510;13.456;2023-08-17T17:34:02;4.50;;;3.10;;
21663;SDS011;10993;52.510;13.456;2023-08-17T17:39:02;4.90;;;3.90;;
21663;SDS011;10993;52.510;13.456;2023-08-17T17:44:05;5.65;;;3.53;;
21663;SDS011;10993;52.510;13.456;2023-08-17T17:49:06;5.82;;;3.20;;
21663;SDS011;10993;52.510;13.456;2023-08-17T17:54:06;8.63;;;4.82;;
21663;SDS011;10993;52.510;13.456;2023-08-17T17:59:08;7.25;;;5.15;;
21663;SDS011;10993;52.510;13.456;2023-08-17T18:04:09;8.05;;;4.38;;
21663;SDS011;10993;52.510;13.456;2023-08-17T18:09:09;5.37;;;4.00;;
21663;SDS011;10993;52.510;13.456;2023-08-17T18:14:11;5.65;;;3.60;;
21663;SDS011;10993;52.510;13.456;2023-08-17T18:19:11;6.75;;;4.28;;
21663;SDS011;10993;52.510;13.456;2023-08-17T18:24:11;7.50;;;3.92;;
21663;SDS011;10993;52.510;13.456;2023-08-17T18:29:13;7.03;;;4.38;;
21663;SDS011;10993;52.510;13.456;2023-08-17T18:34:13;6.53;;;3.60;;
21663;SDS011;10993;52.510;13.456;2023-08-17T18:39:14;5.55;;;2.55;;
21663;SDS011;10993;52.510;13.456;2023-08-17T18:44:16;6.40;;;3.13;;
21663;SDS011;10993;52.510;13.456;2023-08-17T18:49:16;6.13;;;3.45;;
21663;SDS011;10993;52.510;13.456;2023-08-17T18:54:17;6.00;;;3.10;;
21663;SDS011;10993;52.510;13.456;2023-08-17T18:59:18;6.97;;;3.60;;
21663;SDS011;10993;52.510;13.456;2023-08-17T19:04:19;8.20;;;2.80;;
21663;SDS011;10993;52.510;13.456;2023-08-17T19:09:19;6.15;;;3.03;;
21663;SDS011;10993;52.510;13.456;2023-08-17T19:14:21;5.23;;;2.80;;
21663;SDS011;10993;52.510;13.456;2023-08-17T19:19:21;6.68;;;3.10;;
21663;SDS011;10993;52.510;13.456;2023-08-17T19:24:22;6.50;;;3.13;;
21663;SDS011;10993;52.510;13.456;2023-08-17T19:29:23;10.15;;;4.28;;
21663;SDS011;10993;52.510;13.456;2023-08-17T19:34:24;7.40;;;3.63;;
21663;SDS011;10993;52.510;13.456;2023-08-17T19:39:24;7.45;;;3.20;;
21663;SDS011;10993;52.510;13.456;2023-08-17T19:44:27;5.45;;;2.65;;
21663;SDS011;10993;52.510;13.456;2023-08-17T19:49:28;5.13;;;2.45;;
21663;SDS011;10993;52.510;13.456;2023-08-17T19:54:28;4.47;;;2.33;;
21663;SDS011;10993;52.510;13.456;2023-08-17T19:59:30;10.80;;;3.75;;
21663;SDS011;10993;52.510;13.456;2023-08-17T20:04:30;4.97;;;2.85;;
21663;SDS011;10993;52.510;13.456;2023-08-17T20:09:30;4.53;;;2.90;;
21663;SDS011;10993;52.510;13.456;2023-08-17T20:14:33;6.55;;;3.00;;
21663;SDS011;10993;52.510;13.456;2023-08-17T20:19:37;5.18;;;2.72;;
21663;SDS011;10993;52.510;13.456;2023-08-17T20:24:38;6.38;;;2.05;;
21663;SDS011;10993;52.510;13.456;2023-08-17T20:29:39;5.37;;;2.50;;
21663;SDS011;10993;52.510;13.456;2023-08-17T20:34:40;4.93;;;3.08;;
21663;SDS011;10993;52.510;13.456;2023-08-17T20:39:40;6.97;;;3.10;;
21663;SDS011;10993;52.510;13.456;2023-08-17T20:44:42;4.72;;;2.20;;
21663;SDS011;10993;52.510;13.456;2023-08-17T20:49:43;3.95;;;2.42;;
21663;SDS011;10993;52.510;13.456;2023-08-17T20:54:44;3.80;;;2.45;;
21663;SDS011;10993;52.510;13.456;2023-08-17T20:59:45;4.63;;;2.47;;
21663;SDS011;10993;52.510;13.456;2023-08-17T21:04:47;4.22;;;2.13;;
21663;SDS011;10993;52.510;13.456;2023-08-17T21:09:47;5.33;;;2.60;;
21663;SDS011;10993;52.510;13.456;2023-08-17T21:14:49;5.87;;;3.27;;
21663;SDS011;10993;52.510;13.456;2023-08-17T21:19:49;10.38;;;5.85;;
21663;SDS011;10993;52.510;13.456;2023-08-17T21:24:50;6.05;;;3.45;;
21663;SDS011;10993;52.510;13.456;2023-08-17T21:29:51;5.73;;;3.47;;
21663;SDS011;10993;52.510;13.456;2023-08-17T21:34:52;6.97;;;4.07;;
21663;SDS011;10993;52.510;13.456;2023-08-17T21:39:52;6.43;;;3.55;;
21663;SDS011;10993;52.510;13.456;2023-08-17T21:44:55;7.45;;;4.63;;
21663;SDS011;10993;52.510;13.456;2023-08-17T21:49:57;5.13;;;2.83;;
21663;SDS011;10993;52.510;13.456;2023-08-17T21:54:57;5.90;;;2.83;;
21663;SDS011;10993;52.510;13.456;2023-08-17T21:59:59;4.90;;;2.67;;
21663;SDS011;10993;52.510;13.456;2023-08-17T22:04:59;5.40;;;2.70;;
21663;SDS011;10993;52.510;13.456;2023-08-17T22:10:00;6.97;;;3.37;;
21663;SDS011;10993;52.510;13.456;2023-08-17T22:15:01;6.00;;;3.40;;
21663;SDS011;10993;52.510;13.456;2023-08-17T22:20:02;5.85;;;2.45;;
21663;SDS011;10993;52.510;13.456;2023-08-17T22:25:04;4.50;;;2.20;;
21663;SDS011;10993;52.510;13.456;2023-08-17T22:30:07;3.45;;;2.28;;
21663;SDS011;10993;52.510;13.456;2023-08-17T22:35:08;5.47;;;2.33;;
21663;SDS011;10993;52.510;13.456;2023-08-17T22:40:10;6.15;;;2.17;;
21663;SDS011;10993;52.510;13.456;2023-08-17T22:45:12;3.70;;;2.33;;
21663;SDS011;10993;52.510;13.456;2023-08-17T22:50:12;4.65;;;2.05;;
21663;SDS011;10993;52.510;13.456;2023-08-17T22:55:12;5.20;;;1.95;;
21663;SDS011;10993;52.510;13.456;2023-08-17T23:00:14;5.45;;;2.65;;
21663;SDS011;10993;52.510;13.456;2023-08-17T23:05:15;6.32;;;2.67;;
21663;SDS011;10993;52.510;13.456;2023-08-17T23:10:15;5.97;;;2.50;;
21663;SDS011;10993;52.510;13.456;2023-08-17T23:15:17;5.43;;;2.80;;
21663;SDS011;10993;52.510;13.456;2023-08-17T23:20:17;7.03;;;2.80;;
21663;SDS011;10993;52.510;13.456;2023-08-17T23:25:18;7.10;;;3.50;;
21663;SDS011;10993;52.510;13.456;2023-08-17T23:30:19;6.32;;;2.60;;
21663;SDS011;10993;52.510;13.456;2023-08-17T23:35:21;5.55;;;2.70;;
21663;SDS011;10993;52.510;13.456;2023-08-17T23:40:21;3.13;;;2.10;;
21663;SDS011;10993;52.510;13.456;2023-08-17T23:45:23;5.85;;;3.20;;
21663;SDS011;10993;52.510;13.456;2023-08-17T23:50:23;7.57;;;3.30;;
21663;SDS011;10993;52.510;13.456;2023-08-17T23:55:23;6.78;;;3.30;;
